Time;durP1;ratioP1;P1;durP2;ratioP2;P2;SDS_P1;SDS_P2;PMS_P1;PMS_P2;Temp;Humidity;BMP_temperature;BMP_pressure;BME280_temperature;BME280_humidity;BME280_pressure;Samples;Min_cycle;Max_cycle;Signal;HPM_P1;HPM_P2
2021/03/05 00:01:06;;;;;;;;;;;;;;;;;;;;;
2021/03/05 00:03:42;;;;;;;12.38;7.65;;;4.50;84.40;;;;;;6079393;23;20030;-86
2021/03/05 00:09:49;;;;;;;16.88;9.43;;;4.50;84.10;;;;;;6070276;23;20044;-86
2021/03/05 00:12:15;;;;;;;14.13;8.48;;;4.50;84.20;;;;;;6068809;23;20007;-86
2021/03/05 00:15:15;;;;;;;18.38;9.32;;;4.50;84.30;;;;;;6073794;23;20018;-86
2021/03/05 00:18:12;;;;;;;15.95;10.02;;;4.50;84.60;;;;;;6050625;23;20143;-86
2021/03/05 00:21:27;;;;;;;13.18;8.90;;;4.40;84.60;;;;;;6074512;23;20034;-86
2021/03/05 00:24:07;;;;;;;14.52;10.20;;;4.50;84.70;;;;;;6055874;23;20041;-86
2021/03/05 00:26:50;;;;;;;16.85;9.68;;;4.40;84.60;;;;;;6066762;23;20010;-86
2021/03/05 00:29:37;;;;;;;;;;;;;;;;;;;;;
2021/03/05 00:32:17;;;;;;;18.38;9.55;;;4.40;84.60;;;;;;6067869;23;20501;-85
2021/03/05 00:34:52;;;;;;;15.55;9.43;;;4.40;84.60;;;;;;6065155;23;20086;-86
2021/03/05 00:37:27;;;;;;;17.58;9.60;;;4.40;84.60;;;;;;6087634;23;20007;-85
2021/03/05 00:40:24;;;;;;;15.70;9.10;;;4.40;84.60;;;;;;6061585;23;20484;-84
2021/03/05 00:42:57;;;;;;;17.02;9.65;;;4.40;84.60;;;;;;6064543;23;20022;-86
2021/03/05 00:45:31;;;;;;;12.50;8.23;;;4.40;84.50;;;;;;6090593;23;20010;-85
2021/03/05 00:48:04;;;;;;;13.68;8.68;;;4.40;84.50;;;;;;6089955;23;20410;-86
2021/03/05 00:50:58;;;;;;;15.13;9.98;;;4.40;84.40;;;;;;6041552;23;20010;-86
2021/03/05 00:53:36;;;;;;;13.23;8.77;;;4.40;84.30;;;;;;6065485;23;20015;-86
2021/03/05 00:56:12;;;;;;;14.20;8.80;;;4.40;84.30;;;;;;6042036;23;20011;-86
2021/03/05 00:58:43;;;;;;;13.32;8.60;;;4.40;84.30;;;;;;6061725;23;20098;-86
2021/03/05 01:01:18;;;;;;;14.90;8.98;;;4.40;84.10;;;;;;6063022;23;20093;-86
2021/03/05 01:13:50;;;;;;;13.20;8.07;;;4.20;83.60;;;;;;6012033;23;20441;-85
2021/03/05 01:16:51;;;;;;;15.40;9.23;;;4.20;83.50;;;;;;6041152;23;20007;-86
2021/03/05 01:19:29;;;;;;;;;;;;;;;;;;;;;
2021/03/05 01:22:20;;;;;;;12.32;7.65;;;4.10;83.20;;;;;;6066141;23;20389;-85
2021/03/05 01:25:37;;;;;;;12.27;7.88;;;4.00;83.30;;;;;;6066038;23;20011;-86
2021/03/05 01:28:32;;;;;;;10.77;7.22;;;4.00;83.40;;;;;;6053732;23;20081;-85
2021/03/05 01:31:05;;;;;;;13.13;7.53;;;3.90;83.30;;;;;;6044002;23;20011;-86
2021/03/05 01:33:49;;;;;;;11.10;7.65;;;3.90;83.30;;;;;;6088750;23;20378;-85
2021/03/05 01:36:55;;;;;;;12.40;7.68;;;3.80;83.40;;;;;;6066693;23;20171;-86
2021/03/05 01:39:31;;;;;;;12.35;8.30;;;3.80;83.50;;;;;;6042185;23;20421;-86
2021/03/05 01:42:05;;;;;;;14.27;8.18;;;3.70;83.50;;;;;;6038929;23;20035;-85
2021/03/05 01:45:14;;;;;;;10.93;7.43;;;3.70;83.60;;;;;;6064794;23;20014;-86
2021/03/05 01:48:13;;;;;;;11.98;7.35;;;3.70;83.90;;;;;;6003756;23;20004;-86
2021/03/05 01:51:24;;;;;;;12.50;7.25;;;3.60;84.00;;;;;;5998358;23;20045;-85
2021/03/05 01:54:04;;;;;;;;;;;;;;;;;;;;;
2021/03/05 01:56:52;;;;;;;13.40;8.10;;;3.50;84.20;;;;;;6068654;23;20082;-86
2021/03/05 01:59:44;;;;;;;;;;;;;;;;;;;;;
2021/03/05 02:02:32;;;;;;;11.80;8.02;;;3.40;84.30;;;;;;6068094;23;20082;-86
2021/03/05 02:05:46;;;;;;;15.00;8.60;;;3.40;84.50;;;;;;6063716;23;20033;-85
2021/03/05 02:11:10;;;;;;;14.23;7.50;;;3.20;85.10;;;;;;6050296;23;20081;-86
2021/03/05 02:13:46;;;;;;;13.00;7.80;;;3.10;85.30;;;;;;6065653;23;20017;-85
2021/03/05 02:16:59;;;;;;;13.50;8.32;;;3.10;85.40;;;;;;6044385;23;20007;-87
2021/03/05 02:20:03;;;;;;;14.35;8.82;;;3.10;85.40;;;;;;6066951;23;20389;-86
2021/03/05 02:23:09;;;;;;;12.98;8.43;;;3.00;85.70;;;;;;6090537;23;20366;-85
2021/03/05 02:26:13;;;;;;;14.73;8.77;;;3.00;86.00;;;;;;6069412;23;20075;-85
2021/03/05 02:29:05;;;;;;;21.60;9.60;;;2.90;86.20;;;;;;6066447;23;20003;-85
2021/03/05 02:32:02;;;;;;;14.18;8.93;;;2.90;86.50;;;;;;6067867;23;20003;-85
2021/03/05 02:34:45;;;;;;;15.20;9.15;;;2.90;86.50;;;;;;6084287;23;20034;-85
2021/03/05 02:37:25;;;;;;;14.13;8.20;;;2.90;86.60;;;;;;6067068;23;20035;-86
2021/03/05 02:40:00;;;;;;;13.93;8.77;;;2.90;86.80;;;;;;6062113;23;20011;-86
2021/03/05 02:42:33;;;;;;;16.98;9.10;;;2.80;87.00;;;;;;6064408;23;20429;-85
2021/03/05 02:45:05;;;;;;;14.30;8.85;;;2.80;87.20;;;;;;6066679;23;20015;-86
2021/03/05 02:47:35;;;;;;;17.55;10.05;;;2.80;87.20;;;;;;6088267;23;20007;-86
2021/03/05 02:50:09;;;;;;;16.10;8.95;;;2.80;87.20;;;;;;6090804;23;20007;-85
2021/03/05 02:52:51;;;;;;;15.77;9.55;;;2.70;87.40;;;;;;6088262;23;19999;-86
2021/03/05 02:58:17;;;;;;;16.25;9.25;;;2.70;87.60;;;;;;6066649;23;20014;-87
2021/03/05 03:00:52;;;;;;;16.65;9.68;;;2.70;87.60;;;;;;6090499;23;20002;-85
2021/03/05 03:03:20;;;;;;;13.52;9.52;;;2.70;87.70;;;;;;6066548;23;20014;-85
2021/03/05 03:05:57;;;;;;;;;;;;;;;;;;;;;
2021/03/05 03:08:43;;;;;;;;;;;;;;;;;;;;;
2021/03/05 03:11:22;;;;;;;15.98;10.05;;;2.60;88.00;;;;;;6066852;23;20090;-86
2021/03/05 03:14:22;;;;;;;;;;;;;;;;;;;;;
2021/03/05 03:16:58;;;;;;;15.10;8.43;;;2.50;88.10;;;;;;6067073;23;20396;-85
2021/03/05 03:19:41;;;;;;;;;;;;;;;;;;;;;
2021/03/05 03:22:09;;;;;;;13.70;8.70;;;2.50;87.90;;;;;;6067645;23;20402;-85
2021/03/05 03:24:47;;;;;;;14.90;8.05;;;2.40;87.90;;;;;;6065294;23;20010;-85
2021/03/05 03:27:25;;;;;;;15.45;9.15;;;2.40;88.10;;;;;;6067022;23;19999;-85
2021/03/05 03:30:06;;;;;;;16.23;8.35;;;2.40;87.90;;;;;;6042395;23;20011;-86
2021/03/05 03:32:40;;;;;;;14.55;8.57;;;2.30;87.90;;;;;;6044052;23;20513;-85
2021/03/05 03:35:43;;;;;;;16.23;8.70;;;2.30;87.80;;;;;;6090685;23;20007;-86
2021/03/05 03:38:41;;;;;;;14.77;8.45;;;2.20;87.70;;;;;;6063426;23;20443;-86
2021/03/05 03:41:06;;;;;;;15.40;8.00;;;2.20;87.70;;;;;;6067260;23;20025;-85
2021/03/05 03:43:47;;;;;;;13.57;7.72;;;2.20;87.70;;;;;;6087787;23;20011;-85
2021/03/05 03:46:24;;;;;;;12.68;7.68;;;2.10;87.60;;;;;;6067471;23;20333;-86
2021/03/05 03:49:13;;;;;;;11.52;7.50;;;2.10;87.40;;;;;;6043125;23;20010;-86
2021/03/05 03:52:01;;;;;;;12.45;7.32;;;2.10;87.50;;;;;;6070897;23;20012;-86
2021/03/05 03:54:32;;;;;;;12.50;7.28;;;2.10;87.30;;;;;;6090708;23;20472;-85
2021/03/05 03:57:06;;;;;;;11.00;7.05;;;2.10;87.20;;;;;;6093721;23;20009;-86
2021/03/05 03:59:59;;;;;;;;;;;;;;;;;;;;;
2021/03/05 04:02:33;;;;;;;11.10;6.95;;;2.10;86.90;;;;;;6071364;23;20085;-86
2021/03/05 04:05:06;;;;;;;16.60;7.32;;;2.10;87.40;;;;;;6067026;23;20079;-86
2021/03/05 04:07:47;;;;;;;11.75;6.75;;;2.10;86.70;;;;;;6091581;23;20034;-85
2021/03/05 04:10:18;;;;;;;12.52;7.35;;;2.00;86.40;;;;;;6091110;23;20007;-86
2021/03/05 04:13:15;;;;;;;10.45;5.50;;;2.10;86.20;;;;;;6043950;23;20007;-86
2021/03/05 04:15:49;;;;;;;12.98;7.25;;;2.00;86.00;;;;;;6090113;23;20421;-84
2021/03/05 04:18:47;;;;;;;11.05;6.10;;;2.00;85.70;;;;;;6065775;23;20337;-85
2021/03/05 04:21:49;;;;;;;11.05;6.35;;;2.00;85.80;;;;;;6013999;23;20014;-86
2021/03/05 04:24:35;;;;;;;14.75;7.15;;;1.90;85.60;;;;;;6083817;23;20014;-86
2021/03/05 04:27:36;;;;;;;10.40;6.38;;;1.90;85.50;;;;;;6019043;23;20459;-84
2021/03/05 04:30:06;;;;;;;10.18;6.15;;;1.90;85.40;;;;;;6067054;23;20014;-85
2021/03/05 04:32:39;;;;;;;9.95;5.43;;;1.80;85.30;;;;;;6089496;23;20007;-86
2021/03/05 04:35:27;;;;;;;10.70;5.47;;;1.80;85.10;;;;;;6090366;23;20360;-85
2021/03/05 04:38:01;;;;;;;12.30;6.15;;;1.80;85.10;;;;;;6067019;23;20107;-86
2021/03/05 04:40:46;;;;;;;10.18;5.95;;;1.70;84.30;;;;;;6088996;23;20006;-85
2021/03/05 04:43:37;;;;;;;8.85;5.60;;;1.70;84.50;;;;;;6089331;23;20201;-85
2021/03/05 04:46:15;;;;;;;8.90;5.60;;;1.70;84.40;;;;;;6061697;23;20074;-86
2021/03/05 04:48:56;;;;;;;9.80;5.95;;;1.70;84.30;;;;;;6065974;23;20058;-85
2021/03/05 04:51:35;;;;;;;7.68;5.00;;;1.70;84.50;;;;;;6067032;23;20003;-85
2021/03/05 04:54:13;;;;;;;9.82;5.95;;;1.70;84.50;;;;;;6089271;23;20078;-85
2021/03/05 04:56:44;;;;;;;12.68;6.03;;;1.70;84.50;;;;;;6063603;23;20457;-85
2021/03/05 04:59:24;;;;;;;9.23;6.00;;;1.70;84.50;;;;;;6062325;23;20007;-85
2021/03/05 05:01:56;;;;;;;13.15;6.18;;;1.70;84.60;;;;;;6015547;23;20015;-85
2021/03/05 05:04:22;;;;;;;12.25;6.85;;;1.60;84.80;;;;;;6064346;23;20015;-86
2021/03/05 05:06:50;;;;;;;11.82;6.38;;;1.70;84.90;;;;;;6065582;23;20338;-84
2021/03/05 05:09:37;;;;;;;8.73;5.53;;;1.60;84.90;;;;;;6065241;23;20003;-85
2021/03/05 05:12:10;;;;;;;10.70;5.43;;;1.60;85.00;;;;;;6088522;23;20010;-84
2021/03/05 05:14:42;;;;;;;13.82;7.53;;;1.60;84.90;;;;;;6060644;23;20330;-86
2021/03/05 05:17:23;;;;;;;;;;;;;;;;;;;;;
2021/03/05 05:19:58;;;;;;;12.23;6.13;;;1.60;84.80;;;;;;6062695;23;20627;-85
2021/03/05 05:22:34;;;;;;;;;;;;;;;;;;;;;
2021/03/05 05:28:11;;;;;;;11.57;6.57;;;1.40;84.40;;;;;;6034976;23;20430;-85
2021/03/05 05:30:48;;;;;;;11.90;5.75;;;1.40;84.30;;;;;;6063882;23;20007;-86
2021/03/05 05:33:25;;;;;;;10.07;4.90;;;1.40;84.20;;;;;;6066372;23;20066;-85
2021/03/05 05:36:14;;;;;;;9.37;5.43;;;1.30;83.90;;;;;;6064792;23;20045;-85
2021/03/05 05:38:53;;;;;;;9.40;4.78;;;1.40;83.90;;;;;;6090036;23;20330;-85
2021/03/05 05:41:44;;;;;;;8.18;4.97;;;1.40;83.70;;;;;;6066603;23;20003;-85
2021/03/05 05:51:15;;;;;;;;;;;;;;;;;;;;;
2021/03/05 06:01:14;;;;;;;11.57;4.90;;;1.30;83.00;;;;;;5981916;24;20028;-87
2021/03/05 06:07:59;;;;;;;;;;;;;;;;;;;;;
2021/03/05 06:22:12;;;;;;;;;;;;;;;;;;;;;
2021/03/05 06:29:07;;;;;;;10.80;5.05;;;1.20;82.90;;;;;;5712790;25;20430;-91
2021/03/05 06:32:33;;;;;;;;;;;;;;;;;;;;;
2021/03/05 06:35:58;;;;;;;;;;;;;;;;;;;;;
2021/03/05 06:40:02;;;;;;;;;;;;;;;;;;;;;
2021/03/05 07:01:27;;;;;;;8.73;3.63;;;1.20;81.60;;;;;;5584803;25;20470;-88
2021/03/05 07:30:12;;;;;;;5.95;2.78;;;1.50;80.80;;;;;;5753876;24;19909;-89
2021/03/05 07:43:44;;;;;;;;;;;;;;;;;;;;;
2021/03/05 07:47:07;;;;;;;;;;;;;;;;;;;;;
2021/03/05 07:50:12;;;;;;;;;;;;;;;;;;;;;
2021/03/05 08:21:12;;;;;;;;;;;;;;;;;;;;;
2021/03/05 08:45:42;;;;;;;;;;;;;;;;;;;;;
2021/03/05 08:49:31;;;;;;;;;;;;;;;;;;;;;
2021/03/05 15:37:14;;;;;;;;;;;;;;;;;;;;;
2021/03/05 15:47:03;;;;;;;;;;;;;;;;;;;;;
2021/03/05 16:14:17;;;;;;;;;;;;;;;;;;;;;
2021/03/05 16:17:42;;;;;;;;;;;;;;;;;;;;;
2021/03/05 17:18:25;;;;;;;;;;;;;;;;;;;;;
2021/03/05 17:25:05;;;;;;;;;;;;;;;;;;;;;
2021/03/05 17:49:18;;;;;;;1.88;1.00;;;5.60;54.50;;;;;;5782357;24;20073;-85
2021/03/05 17:54:35;;;;;;;2.67;1.08;;;5.60;55.10;;;;;;6142118;23;20056;-85
2021/03/05 17:57:19;;;;;;;3.28;1.15;;;5.50;55.40;;;;;;6243389;22;20030;-85
2021/03/05 17:59:47;;;;;;;3.33;1.30;;;5.50;55.40;;;;;;6246872;22;20003;-85
2021/03/05 18:02:16;;;;;;;3.03;1.27;;;5.50;55.40;;;;;;6273874;22;20202;-86
2021/03/05 18:04:51;;;;;;;4.25;1.17;;;5.40;55.50;;;;;;6247071;22;20019;-84
2021/03/05 18:07:30;;;;;;;;;;;;;;;;;;;;;
2021/03/05 18:10:17;;;;;;;4.00;1.33;;;5.40;55.60;;;;;;6274261;22;20075;-85
2021/03/05 18:12:48;;;;;;;3.42;1.38;;;5.40;56.00;;;;;;6246340;22;20337;-85
2021/03/05 18:15:15;;;;;;;2.15;1.33;;;5.30;55.90;;;;;;6223382;22;20007;-85
2021/03/05 18:18:01;;;;;;;4.22;1.40;;;5.30;56.10;;;;;;6246036;22;20038;-86
2021/03/05 18:20:44;;;;;;;4.18;1.45;;;5.30;56.50;;;;;;6162356;22;20116;-87
2021/03/05 18:23:28;;;;;;;2.83;1.00;;;5.30;56.90;;;;;;6223809;22;20069;-85
2021/03/05 18:26:03;;;;;;;3.38;1.30;;;5.20;57.20;;;;;;6246425;22;20007;-86
2021/03/05 18:28:51;;;;;;;3.58;1.40;;;5.20;57.40;;;;;;6246575;22;20000;-85
2021/03/05 18:31:22;;;;;;;2.33;1.50;;;5.10;57.60;;;;;;6246559;22;20050;-87
2021/03/05 18:33:50;;;;;;;;;;;5.00;57.80;;;;;;6247305;22;20094;-83
2021/03/05 18:36:25;;;;;;;3.97;1.70;;;5.00;58.10;;;;;;6220169;22;19903;-83
2021/03/05 18:39:04;;;;;;;;;;;;;;;;;;;;;
2021/03/05 18:41:55;;;;;;;4.25;1.83;;;4.90;58.40;;;;;;6273271;22;20086;-84
2021/03/05 18:44:36;;;;;;;3.50;1.23;;;4.90;58.90;;;;;;6244253;22;20011;-84
2021/03/05 18:47:09;;;;;;;3.50;1.33;;;4.80;59.00;;;;;;6246897;22;20238;-83
2021/03/05 18:50:05;;;;;;;3.50;1.10;;;4.80;59.30;;;;;;6220252;22;20033;-85
2021/03/05 18:53:02;;;;;;;5.22;1.58;;;4.70;59.70;;;;;;6197049;22;20034;-84
2021/03/05 18:55:41;;;;;;;4.00;1.92;;;4.70;59.90;;;;;;6225981;22;20004;-84
2021/03/05 18:58:27;;;;;;;4.25;2.13;;;4.60;60.10;;;;;;6243470;22;20333;-85
2021/03/05 19:01:18;;;;;;;3.45;1.70;;;4.50;60.20;;;;;;6244665;22;20004;-85
2021/03/05 19:04:09;;;;;;;2.95;1.55;;;4.50;60.30;;;;;;6245600;22;20114;-85
2021/03/05 19:06:56;;;;;;;4.53;1.95;;;4.50;60.40;;;;;;6156374;23;20009;-85
2021/03/05 19:09:45;;;;;;;4.35;1.85;;;4.50;60.50;;;;;;6157494;23;20001;-86
2021/03/05 19:12:44;;;;;;;;;;;;;;;;;;;;;
2021/03/05 19:15:45;;;;;;;3.38;1.92;;;4.40;60.90;;;;;;6181271;23;20081;-85
2021/03/05 19:24:37;;;;;;;;;;;;;;;;;;;;;
2021/03/05 19:27:29;;;;;;;;;;;;;;;;;;;;;
2021/03/05 19:30:13;;;;;;;4.55;2.20;;;4.10;61.30;;;;;;6158206;23;20084;-86
2021/03/05 19:32:53;;;;;;;4.25;2.15;;;4.10;61.60;;;;;;6181357;23;20120;-86
2021/03/05 19:35:36;;;;;;;5.57;2.30;;;4.10;61.90;;;;;;6155974;23;20012;-86
2021/03/05 19:38:15;;;;;;;4.45;2.47;;;4.00;62.10;;;;;;6254605;22;20035;-84
2021/03/05 19:44:30;;;;;;;5.78;2.50;;;3.90;62.60;;;;;;6275753;22;20057;-86
2021/03/05 19:47:18;;;;;;;4.50;2.53;;;3.80;63.00;;;;;;6249626;22;20004;-84
2021/03/05 19:49:56;;;;;;;5.05;2.33;;;3.80;63.30;;;;;;6250465;22;20010;-83
2021/03/05 19:52:44;;;;;;;5.55;2.45;;;3.70;63.60;;;;;;6249745;22;20426;-83
2021/03/05 19:55:32;;;;;;;5.97;2.38;;;3.70;63.90;;;;;;6249557;22;20033;-83
2021/03/05 19:58:06;;;;;;;7.30;2.50;;;3.60;64.10;;;;;;6226341;22;20012;-87
2021/03/05 20:00:38;;;;;;;3.42;2.17;;;3.60;64.30;;;;;;6249664;22;20158;-86
2021/03/05 20:03:26;;;;;;;6.05;2.30;;;3.50;64.50;;;;;;6249536;22;20098;-84
2021/03/05 20:06:06;;;;;;;4.40;2.03;;;3.50;64.70;;;;;;6200273;22;20011;-85
2021/03/05 20:08:45;;;;;;;;;;;;;;;;;;;;;
2021/03/05 20:11:40;;;;;;;3.42;1.73;;;3.40;65.00;;;;;;6276724;22;20052;-85
2021/03/05 20:14:13;;;;;;;9.23;2.55;;;3.40;65.10;;;;;;6271181;22;20015;-84
2021/03/05 20:16:49;;;;;;;3.67;2.20;;;3.40;65.30;;;;;;6226166;22;20007;-84
2021/03/05 20:19:20;;;;;;;5.43;2.20;;;3.50;65.50;;;;;;6274528;22;20006;-84
2021/03/05 20:21:56;;;;;;;4.55;2.08;;;3.50;66.30;;;;;;6274754;22;20004;-82
2021/03/05 20:24:27;;;;;;;4.50;2.25;;;3.50;65.90;;;;;;6226599;22;20031;-84
2021/03/05 20:28:10;;;;;;;8.15;2.85;;;3.50;66.00;;;;;;6249046;22;20004;-84
2021/03/05 20:31:00;;;;;;;5.95;2.15;;;3.50;66.40;;;;;;6273096;22;20547;-87
2021/03/05 20:33:58;;;;;;;5.57;1.92;;;3.50;66.50;;;;;;6254044;22;20039;-87
2021/03/05 20:36:32;;;;;;;5.78;2.03;;;3.50;66.60;;;;;;6275045;22;20019;-86
2021/03/05 20:39:32;;;;;;;3.78;2.00;;;3.50;66.60;;;;;;6274598;22;20315;-85
2021/03/05 20:42:00;;;;;;;6.72;2.03;;;3.50;66.90;;;;;;6274499;22;20015;-86
2021/03/05 20:47:26;;;;;;;5.88;2.55;;;3.50;67.30;;;;;;6276285;22;20015;-84
2021/03/05 20:50:02;;;;;;;3.95;1.70;;;3.50;67.40;;;;;;6249736;22;20031;-85
2021/03/05 20:52:47;;;;;;;;;;;;;;;;;;;;;
2021/03/05 20:55:23;;;;;;;5.05;2.30;;;3.50;67.60;;;;;;6275581;22;20090;-86
2021/03/05 20:57:51;;;;;;;7.43;3.05;;;3.40;67.70;;;;;;6273210;22;20015;-85
2021/03/05 21:00:18;;;;;;;6.28;2.00;;;3.50;67.80;;;;;;6272228;22;20007;-84
2021/03/05 21:02:49;;;;;;;5.88;2.25;;;3.40;67.80;;;;;;6273607;22;20356;-84
2021/03/05 21:05:20;;;;;;;5.15;2.25;;;3.40;68.00;;;;;;6272610;22;20429;-84
2021/03/05 21:08:09;;;;;;;5.93;2.42;;;3.40;68.10;;;;;;6273164;22;20004;-84
2021/03/05 21:10:43;;;;;;;9.00;2.08;;;3.40;68.30;;;;;;6273567;22;20030;-84
2021/03/05 21:13:09;;;;;;;6.50;2.10;;;3.40;68.20;;;;;;6271740;22;20344;-84
2021/03/05 21:15:43;;;;;;;5.90;2.30;;;3.40;68.40;;;;;;6272709;22;20000;-85
2021/03/05 21:18:30;;;;;;;4.97;1.88;;;3.30;69.10;;;;;;6248146;22;20078;-83
2021/03/05 21:21:06;;;;;;;;;;;;;;;;;;;;;
2021/03/05 21:23:37;;;;;;;7.15;2.30;;;3.30;68.80;;;;;;6273674;22;20094;-85
2021/03/05 21:26:03;;;;;;;5.63;2.17;;;3.30;68.90;;;;;;6246897;22;20062;-84
2021/03/05 21:28:36;;;;;;;6.65;2.35;;;3.30;68.90;;;;;;6272163;22;20008;-84
2021/03/05 21:31:33;;;;;;;6.68;2.50;;;3.30;69.10;;;;;;6274106;22;20417;-84
2021/03/05 21:34:36;;;;;;;5.25;2.10;;;3.20;69.00;;;;;;6273562;22;20019;-85
2021/03/05 21:37:06;;;;;;;4.18;2.40;;;3.20;69.10;;;;;;6272586;22;20000;-84
2021/03/05 21:39:39;;;;;;;7.47;2.35;;;3.20;69.20;;;;;;6275018;22;20006;-85
2021/03/05 21:42:23;;;;;;;4.68;2.60;;;3.20;69.30;;;;;;6272731;22;20018;-85
2021/03/05 21:44:56;;;;;;;3.97;2.25;;;3.20;69.40;;;;;;6251813;22;20011;-85
2021/03/05 21:50:17;;;;;;;5.32;2.35;;;3.10;69.60;;;;;;6275077;22;20092;-85
2021/03/05 21:52:52;;;;;;;5.40;2.20;;;3.00;69.80;;;;;;6249154;22;20008;-84
2021/03/05 21:55:30;;;;;;;5.50;2.28;;;3.00;70.00;;;;;;6273607;22;20125;-86
2021/03/05 21:58:35;;;;;;;7.20;2.60;;;3.00;70.10;;;;;;6249842;22;20007;-87
2021/03/05 22:01:14;;;;;;;;;;;;;;;;;;;;;
2021/03/05 22:03:45;;;;;;;5.25;2.55;;;2.90;70.50;;;;;;6276867;22;20481;-86
2021/03/05 22:06:36;;;;;;;6.93;2.30;;;2.90;70.50;;;;;;6248520;22;20034;-86
2021/03/05 22:09:08;;;;;;;4.15;2.15;;;2.80;70.60;;;;;;6273631;22;20317;-85
2021/03/05 22:11:56;;;;;;;6.45;2.15;;;2.80;70.70;;;;;;6273971;22;20321;-86
2021/03/05 22:14:25;;;;;;;8.80;2.80;;;2.80;70.80;;;;;;6272096;22;20091;-85
2021/03/05 22:17:01;;;;;;;5.18;2.47;;;2.80;71.10;;;;;;6247598;22;20014;-86
2021/03/05 22:19:48;;;;;;;7.68;2.55;;;2.80;71.30;;;;;;6273749;22;20011;-86
2021/03/05 22:22:22;;;;;;;11.32;2.65;;;2.70;71.50;;;;;;6274325;22;20086;-85
2021/03/05 22:24:52;;;;;;;9.57;2.60;;;2.70;71.60;;;;;;6275521;22;20004;-86
2021/03/05 22:27:18;;;;;;;4.80;2.57;;;2.70;71.80;;;;;;6274670;22;20322;-86
2021/03/05 22:29:56;;;;;;;5.90;2.50;;;2.70;71.90;;;;;;6247859;22;20238;-86
2021/03/05 22:32:31;;;;;;;8.95;2.90;;;2.60;72.00;;;;;;6273362;22;20489;-85
2021/03/05 22:35:08;;;;;;;6.03;2.22;;;2.60;72.00;;;;;;6274592;22;20003;-85
2021/03/05 22:37:41;;;;;;;7.65;2.50;;;2.60;72.00;;;;;;6273935;22;20004;-86
2021/03/05 22:40:18;;;;;;;9.00;2.47;;;2.60;72.10;;;;;;6249969;22;20413;-86
2021/03/05 22:42:56;;;;;;;8.98;2.92;;;2.70;72.30;;;;;;6249965;22;20042;-85
2021/03/05 22:45:30;;;;;;;8.52;2.28;;;2.60;72.20;;;;;;6273399;22;20007;-86
2021/03/05 22:48:19;;;;;;;5.90;2.33;;;2.60;72.30;;;;;;6275255;22;20000;-86
2021/03/05 22:51:15;;;;;;;6.18;2.00;;;2.60;72.40;;;;;;6280167;22;20310;-85
2021/03/05 22:54:14;;;;;;;8.05;2.17;;;2.60;72.40;;;;;;6263845;22;20027;-86
2021/03/05 22:56:43;;;;;;;5.13;2.20;;;2.60;72.60;;;;;;6275796;22;20412;-86
2021/03/05 22:59:11;;;;;;;6.90;2.42;;;2.60;72.60;;;;;;6282398;22;19999;-86
2021/03/05 23:01:55;;;;;;;8.77;2.83;;;2.60;72.80;;;;;;6282498;22;20012;-86
2021/03/05 23:04:23;;;;;;;6.70;2.47;;;2.50;72.90;;;;;;6259045;22;20031;-86
2021/03/05 23:06:57;;;;;;;3.38;1.85;;;2.50;72.90;;;;;;6284810;22;20003;-85
2021/03/05 23:09:23;;;;;;;6.53;2.42;;;2.60;73.00;;;;;;6284698;22;20007;-86
2021/03/05 23:12:14;;;;;;;9.68;2.28;;;2.60;73.00;;;;;;6285234;22;20007;-86
2021/03/05 23:14:43;;;;;;;4.60;1.80;;;2.50;73.00;;;;;;6279577;22;20034;-86
2021/03/05 23:17:12;;;;;;;5.93;2.17;;;2.60;73.10;;;;;;6275700;22;20002;-86
2021/03/05 23:19:47;;;;;;;5.80;2.20;;;2.50;73.00;;;;;;6275222;22;20329;-86
2021/03/05 23:22:20;;;;;;;5.82;2.00;;;2.50;73.00;;;;;;6275284;22;20038;-87
2021/03/05 23:24:58;;;;;;;;;;;;;;;;;;;;;
2021/03/05 23:27:53;;;;;;;6.82;2.28;;;2.50;73.00;;;;;;6276430;22;20102;-86
2021/03/05 23:30:29;;;;;;;6.70;2.15;;;2.50;73.00;;;;;;6230345;22;20087;-86
2021/03/05 23:32:58;;;;;;;6.45;2.35;;;2.50;73.00;;;;;;6275860;22;20058;-86
2021/03/05 23:35:53;;;;;;;5.60;2.20;;;2.50;73.00;;;;;;6275097;22;19996;-85
2021/03/05 23:38:31;;;;;;;5.45;2.33;;;2.50;73.20;;;;;;6274248;22;20004;-85
2021/03/05 23:41:22;;;;;;;5.28;1.92;;;2.40;73.20;;;;;;6276414;22;20003;-86
2021/03/05 23:43:50;;;;;;;4.90;2.28;;;2.40;73.20;;;;;;6255751;22;20091;-85
2021/03/05 23:47:00;;;;;;;5.35;2.05;;;2.40;73.20;;;;;;6274428;22;20318;-86
2021/03/05 23:50:07;;;;;;;;;;;;;;;;;;;;;
2021/03/05 23:52:47;;;;;;;4.50;2.00;;;2.40;73.40;;;;;;6272065;22;20142;-86
2021/03/05 23:55:23;;;;;;;7.38;2.72;;;2.40;73.40;;;;;;6275080;22;20461;-86
2021/03/05 23:57:51;;;;;;;6.70;1.90;;;2.40;73.50;;;;;;6274946;22;20008;-86
